Aviation Digital Data Service (ADDS)

Output produced by METARs form (0020 UTC 24 May 2022)
found at http://www.aviationweather.gov/metar/data/
 
OKAS 232355Z 32009KT 1200 DU CLR 26/02 A2967 RMK SLP042 53005
TAF OKAS 232300Z 2323/2505 34012KT 1200 DU SKC QNH2964INS 
     TEMPO 2402/2406 0800 DS 
     BECMG 2405/2406 33010G15KT 1600 DU SKC QNH2964INS 
     BECMG 2406/2407 34012G20KT 2000 BLDU SKC QNH2975INS 
     BECMG 2408/2409 34015G20KT 3200 BLDU SKC QNH2970INS 
     TEMPO 2409/2413 33015G25KT 
     BECMG 2415/2416 34012KT 5000 HZ SKC QNH2973INS 
     BECMG 2418/2419 35006KT 6000 HZ SKC QNH2975INS TX35/2410Z TN24/2403Z
       
OKBK 240000Z 33014KT 2000 DU NSC 28/06 Q1005 NOSIG
TAF OKBK 232300Z 2400/2506 35010G20KT 6000 NSC 
     TEMPO 2400/2412 2000 BLDU 
     PROB30 
     TEMPO 2400/2406 1000